createdAt,value
2017-12-11T00:00:48.237Z,968.63
2017-12-11T00:01:48.176Z,968.65
2017-12-11T00:02:48.173Z,968.62
2017-12-11T00:03:48.210Z,968.67
2017-12-11T00:04:48.239Z,968.72
2017-12-11T00:05:48.239Z,968.78
2017-12-11T00:06:48.278Z,968.74
2017-12-11T00:07:48.241Z,968.84
2017-12-11T00:08:48.172Z,968.83
2017-12-11T00:09:48.175Z,968.88
2017-12-11T00:10:48.251Z,968.92
2017-12-11T00:11:48.177Z,969.03
2017-12-11T00:12:48.244Z,969.03
2017-12-11T00:13:48.265Z,969.14
2017-12-11T00:14:48.178Z,969.06
2017-12-11T00:15:48.177Z,969.16
2017-12-11T00:16:48.245Z,969.24
2017-12-11T00:17:48.178Z,969.23
2017-12-11T00:18:48.251Z,969.19
2017-12-11T00:19:48.179Z,969.30
2017-12-11T00:20:48.250Z,969.29
2017-12-11T00:21:48.186Z,969.28
2017-12-11T00:22:48.138Z,969.32
2017-12-11T00:23:48.120Z,969.43
2017-12-11T00:24:48.145Z,969.42
2017-12-11T00:25:48.111Z,969.46
2017-12-11T00:26:48.239Z,969.46
2017-12-11T00:27:48.113Z,969.60
2017-12-11T00:28:48.234Z,969.58
2017-12-11T00:29:48.223Z,969.49
2017-12-11T00:30:48.179Z,969.67
2017-12-11T00:31:48.165Z,969.55
2017-12-11T00:32:48.131Z,969.72
2017-12-11T00:33:48.190Z,969.95
2017-12-11T00:34:48.126Z,969.71
2017-12-11T00:35:48.196Z,969.86
2017-12-11T00:36:48.248Z,969.85
2017-12-11T00:37:48.183Z,969.87
2017-12-11T00:38:48.202Z,969.92
2017-12-11T00:39:48.146Z,969.88
2017-12-11T00:40:48.214Z,969.85
2017-12-11T00:41:48.250Z,969.98
2017-12-11T00:42:48.192Z,969.92
2017-12-11T00:43:48.285Z,969.91
2017-12-11T00:44:48.206Z,969.97
2017-12-11T00:45:48.264Z,969.99
2017-12-11T00:46:48.226Z,969.98
2017-12-11T00:47:48.199Z,970.09
2017-12-11T00:48:48.144Z,970.11
2017-12-11T00:49:48.259Z,970.05
2017-12-11T00:50:48.205Z,970.30
2017-12-11T00:51:48.266Z,970.31
2017-12-11T00:52:48.209Z,970.40
2017-12-11T00:53:48.270Z,970.36
2017-12-11T00:54:48.267Z,970.36
2017-12-11T00:55:48.208Z,970.44
2017-12-11T00:56:48.202Z,970.31
2017-12-11T00:57:48.205Z,970.40
2017-12-11T00:58:48.271Z,970.48
2017-12-11T00:59:48.201Z,970.57
2017-12-11T01:00:48.276Z,970.51
2017-12-11T01:01:48.211Z,970.62
2017-12-11T01:02:48.147Z,970.62
2017-12-11T01:03:48.169Z,970.71
2017-12-11T01:04:48.197Z,970.87
2017-12-11T01:05:48.228Z,970.84
2017-12-11T01:06:48.185Z,970.93
2017-12-11T01:07:48.146Z,971.20
2017-12-11T01:08:48.231Z,971.15
2017-12-11T01:09:48.205Z,971.03
2017-12-11T01:10:48.171Z,971.10
2017-12-11T01:11:48.209Z,971.17
2017-12-11T01:12:48.177Z,971.24
2017-12-11T01:13:48.179Z,971.35
2017-12-11T01:14:48.139Z,971.31
2017-12-11T01:15:48.227Z,971.29
2017-12-11T01:16:48.233Z,971.44
2017-12-11T01:17:48.141Z,971.37
2017-12-11T01:18:48.183Z,971.49
2017-12-11T01:19:48.233Z,971.51
2017-12-11T01:20:48.138Z,971.63
2017-12-11T01:21:48.141Z,971.54
2017-12-11T01:22:48.191Z,971.61
2017-12-11T01:23:48.149Z,971.69
2017-12-11T01:24:48.270Z,971.69
2017-12-11T01:25:48.271Z,971.52
2017-12-11T01:26:48.272Z,971.71
2017-12-11T01:27:48.243Z,971.84
2017-12-11T01:28:48.218Z,971.69
2017-12-11T01:29:48.177Z,971.67
2017-12-11T01:30:48.266Z,971.69
2017-12-11T01:31:48.202Z,971.82
2017-12-11T01:32:48.292Z,971.86
2017-12-11T01:33:48.226Z,971.84
2017-12-11T01:34:48.227Z,971.87
2017-12-11T01:35:48.185Z,971.83
2017-12-11T01:36:48.226Z,971.93
2017-12-11T01:37:48.295Z,972.03
2017-12-11T01:38:48.228Z,971.99
2017-12-11T01:39:48.295Z,971.96
2017-12-11T01:40:48.299Z,971.90
2017-12-11T01:41:48.227Z,971.95
2017-12-11T01:42:48.191Z,971.98
2017-12-11T01:43:48.228Z,972.00
2017-12-11T01:44:48.187Z,972.00
2017-12-11T01:45:48.260Z,972.02
2017-12-11T01:46:48.193Z,972.13
2017-12-11T01:47:48.156Z,972.04
2017-12-11T01:48:48.162Z,972.14
2017-12-11T01:49:48.263Z,972.05
2017-12-11T01:50:48.287Z,972.05
2017-12-11T01:51:48.230Z,972.09
2017-12-11T01:52:48.300Z,972.21
2017-12-11T01:53:48.288Z,972.18
2017-12-11T01:54:48.294Z,972.22
2017-12-11T01:55:48.209Z,972.12
2017-12-11T01:56:48.308Z,972.20
2017-12-11T01:57:48.191Z,972.13
2017-12-11T01:58:48.300Z,972.08
2017-12-11T01:59:48.301Z,972.11
2017-12-11T02:00:48.241Z,972.10
2017-12-11T02:01:48.244Z,972.16
2017-12-11T02:02:48.239Z,972.15
2017-12-11T02:03:48.322Z,972.10
2017-12-11T02:04:48.249Z,972.10
2017-12-11T02:05:48.311Z,971.98
2017-12-11T02:06:48.263Z,971.98
2017-12-11T02:07:48.311Z,972.02
2017-12-11T02:08:48.315Z,972.05
2017-12-11T02:09:48.315Z,972.04
2017-12-11T02:10:48.250Z,972.07
2017-12-11T02:11:48.316Z,972.18
2017-12-11T02:12:48.314Z,972.18
2017-12-11T02:13:48.243Z,972.19
2017-12-11T02:14:48.251Z,972.32
2017-12-11T02:15:48.318Z,972.27
2017-12-11T02:16:48.252Z,972.24
2017-12-11T02:17:48.319Z,972.23
2017-12-11T02:18:48.255Z,972.20
2017-12-11T02:19:48.322Z,972.10
2017-12-11T02:20:48.257Z,972.09
2017-12-11T02:21:48.328Z,972.02
2017-12-11T02:22:48.275Z,971.99
2017-12-11T02:23:48.324Z,971.98
2017-12-11T02:24:48.257Z,972.00
2017-12-11T02:25:48.324Z,972.02
2017-12-11T02:26:48.254Z,972.03
2017-12-11T02:27:48.328Z,972.08
2017-12-11T02:28:48.257Z,972.13
2017-12-11T02:29:48.326Z,972.21
2017-12-11T02:30:48.320Z,972.30
2017-12-11T02:31:48.261Z,972.12
2017-12-11T02:32:48.328Z,972.18
2017-12-11T02:33:48.260Z,972.11
2017-12-11T02:34:48.330Z,972.08
2017-12-11T02:35:48.327Z,972.13
2017-12-11T02:36:48.265Z,972.22
2017-12-11T02:37:48.269Z,972.35
2017-12-11T02:38:48.333Z,972.21
2017-12-11T02:39:48.263Z,972.23
2017-12-11T02:40:48.264Z,972.26
2017-12-11T02:41:48.267Z,972.23
2017-12-11T02:42:48.273Z,972.32
2017-12-11T02:43:48.339Z,972.37
2017-12-11T02:44:48.269Z,972.53
2017-12-11T02:45:48.337Z,972.55
2017-12-11T02:46:48.264Z,972.51
2017-12-11T02:47:48.342Z,972.55
2017-12-11T02:48:48.337Z,972.58
2017-12-11T02:49:48.268Z,972.68
2017-12-11T02:50:48.338Z,972.70
2017-12-11T02:51:48.312Z,972.72
2017-12-11T02:52:48.287Z,972.78
2017-12-11T02:53:48.236Z,972.76
2017-12-11T02:54:48.286Z,972.83
2017-12-11T02:55:48.194Z,972.75
2017-12-11T02:56:48.240Z,972.80
2017-12-11T02:57:48.192Z,972.87
2017-12-11T02:58:48.244Z,972.93
2017-12-11T02:59:48.242Z,972.97
2017-12-11T03:00:48.196Z,972.96
2017-12-11T03:01:48.195Z,973.03
2017-12-11T03:02:48.282Z,973.13
2017-12-11T03:03:48.349Z,973.29
2017-12-11T03:04:48.308Z,973.35
2017-12-11T03:05:48.281Z,973.37
2017-12-11T03:06:48.352Z,973.41
2017-12-11T03:07:48.282Z,973.49
2017-12-11T03:08:48.351Z,973.52
2017-12-11T03:09:48.282Z,973.58
2017-12-11T03:10:48.360Z,973.62
2017-12-11T03:11:48.279Z,973.64
2017-12-11T03:12:48.216Z,973.73
2017-12-11T03:13:48.343Z,973.75
2017-12-11T03:14:48.222Z,973.84
2017-12-11T03:15:48.217Z,973.86
2017-12-11T03:16:48.237Z,973.94
2017-12-11T03:17:48.258Z,973.97
2017-12-11T03:18:48.240Z,973.95
2017-12-11T03:19:48.238Z,973.97
2017-12-11T03:20:48.549Z,973.96
2017-12-11T03:21:48.260Z,974.09
2017-12-11T03:22:48.261Z,974.09
2017-12-11T03:23:48.240Z,974.04
2017-12-11T03:24:48.244Z,974.08
2017-12-11T03:25:48.329Z,974.17
2017-12-11T03:26:48.352Z,974.12
2017-12-11T03:27:48.243Z,974.14
2017-12-11T03:28:48.361Z,974.17
2017-12-11T03:29:48.268Z,974.10
2017-12-11T03:30:48.317Z,974.31
2017-12-11T03:31:48.242Z,974.29
2017-12-11T03:32:48.316Z,974.26
2017-12-11T03:33:48.248Z,974.25
2017-12-11T03:34:48.343Z,974.30
2017-12-11T03:35:48.326Z,974.26
2017-12-11T03:36:48.229Z,974.40
2017-12-11T03:37:48.235Z,974.45
2017-12-11T03:38:48.235Z,974.53
2017-12-11T03:39:48.372Z,974.63
2017-12-11T03:40:48.346Z,974.66
2017-12-11T03:41:48.300Z,974.69
2017-12-11T03:42:48.299Z,974.74
2017-12-11T03:43:48.361Z,974.73
2017-12-11T03:44:48.364Z,974.75
2017-12-11T03:45:48.323Z,974.67
2017-12-11T03:46:48.306Z,974.83
2017-12-11T03:47:48.277Z,974.81
2017-12-11T03:48:48.328Z,974.79
2017-12-11T03:49:48.360Z,974.89
2017-12-11T03:50:48.342Z,974.92
2017-12-11T03:51:48.360Z,974.96
2017-12-11T03:52:48.282Z,974.92
2017-12-11T03:53:48.257Z,974.91
2017-12-11T03:54:48.284Z,974.89
2017-12-11T03:55:48.280Z,974.93
2017-12-11T03:56:48.278Z,974.92
2017-12-11T03:57:48.282Z,975.01
2017-12-11T03:58:48.276Z,974.98
2017-12-11T03:59:48.333Z,974.98
2017-12-11T04:00:48.307Z,975.10
2017-12-11T04:01:48.349Z,975.14
2017-12-11T04:02:48.278Z,975.17
2017-12-11T04:03:48.380Z,975.19
2017-12-11T04:04:48.246Z,975.24
2017-12-11T04:05:48.382Z,975.27
2017-12-11T04:06:48.371Z,975.28
2017-12-11T04:07:48.367Z,975.28
2017-12-11T04:08:48.321Z,975.26
2017-12-11T04:09:48.368Z,975.16
2017-12-11T04:10:48.383Z,975.13
2017-12-11T04:11:48.336Z,975.07
2017-12-11T04:12:48.293Z,974.99
2017-12-11T04:13:48.374Z,974.89
2017-12-11T04:14:48.255Z,975.01
2017-12-11T04:15:48.292Z,974.94
2017-12-11T04:16:48.272Z,974.78
2017-12-11T04:17:48.343Z,974.77
2017-12-11T04:18:48.274Z,974.75
2017-12-11T04:19:48.269Z,974.69
2017-12-11T04:20:48.275Z,974.65
2017-12-11T04:21:48.297Z,974.67
2017-12-11T04:22:48.392Z,974.71
2017-12-11T04:23:48.338Z,974.73
2017-12-11T04:24:48.396Z,974.74
2017-12-11T04:25:48.326Z,974.72
2017-12-11T04:26:48.397Z,974.71
2017-12-11T04:27:48.390Z,974.70
2017-12-11T04:28:48.341Z,974.74
2017-12-11T04:29:48.405Z,974.76
2017-12-11T04:30:48.329Z,974.80
2017-12-11T04:31:48.399Z,974.79
2017-12-11T04:32:48.332Z,974.83
2017-12-11T04:33:48.400Z,974.83
2017-12-11T04:34:48.333Z,974.79
2017-12-11T04:35:48.334Z,974.79
2017-12-11T04:36:48.333Z,974.80
2017-12-11T04:37:48.402Z,974.85
2017-12-11T04:38:48.336Z,974.89
2017-12-11T04:39:48.402Z,974.91
2017-12-11T04:40:48.339Z,974.88
2017-12-11T04:41:48.426Z,974.90
2017-12-11T04:42:48.346Z,974.89
2017-12-11T04:43:48.405Z,974.86
2017-12-11T04:44:48.409Z,974.84
2017-12-11T04:45:48.471Z,974.82
2017-12-11T04:46:48.411Z,974.81
2017-12-11T04:47:48.343Z,974.81
2017-12-11T04:48:48.414Z,974.76
2017-12-11T04:49:48.343Z,974.80
2017-12-11T04:50:48.291Z,974.78
2017-12-11T04:51:48.350Z,974.70
2017-12-11T04:52:48.337Z,974.65
2017-12-11T04:53:48.343Z,974.68
2017-12-11T04:54:48.363Z,974.66
2017-12-11T04:55:48.381Z,974.62
2017-12-11T04:56:48.415Z,974.63
2017-12-11T04:57:48.362Z,974.54
2017-12-11T04:58:48.344Z,974.50
2017-12-11T04:59:48.296Z,974.41
2017-12-11T05:00:48.319Z,974.35
2017-12-11T05:01:48.302Z,974.30
2017-12-11T05:02:48.419Z,974.24
2017-12-11T05:03:48.422Z,974.21
2017-12-11T05:04:48.422Z,974.15
2017-12-11T05:05:48.361Z,974.16
2017-12-11T05:06:48.418Z,974.12
2017-12-11T05:07:48.421Z,974.14
2017-12-11T05:08:48.354Z,974.16
2017-12-11T05:09:48.357Z,974.24
2017-12-11T05:10:48.448Z,974.36
2017-12-11T05:11:48.358Z,974.49
2017-12-11T05:12:48.306Z,974.56
2017-12-11T05:13:48.373Z,974.60
2017-12-11T05:14:48.355Z,974.64
2017-12-11T05:15:48.378Z,974.70
2017-12-11T05:16:48.424Z,974.75
2017-12-11T05:17:48.377Z,974.82
2017-12-11T05:18:48.295Z,974.79
2017-12-11T05:19:48.363Z,974.79
2017-12-11T05:20:48.388Z,974.83
2017-12-11T05:21:48.381Z,974.90
2017-12-11T05:22:48.365Z,974.95
2017-12-11T05:23:48.431Z,975.03
2017-12-11T05:24:48.431Z,974.97
2017-12-11T05:25:48.436Z,974.92
2017-12-11T05:26:48.370Z,974.89
2017-12-11T05:27:48.438Z,974.86
2017-12-11T05:28:48.369Z,974.85
2017-12-11T05:29:48.409Z,974.82
2017-12-11T05:30:48.436Z,974.89
2017-12-11T05:31:48.437Z,974.88
2017-12-11T05:32:48.366Z,974.92
2017-12-11T05:33:48.436Z,974.93
2017-12-11T05:34:48.373Z,974.93
2017-12-11T05:35:48.438Z,974.87
2017-12-11T05:36:48.369Z,974.89
2017-12-11T05:37:48.440Z,974.92
2017-12-11T05:38:48.442Z,974.95
2017-12-11T05:39:48.372Z,974.95
2017-12-11T05:40:48.377Z,974.99
2017-12-11T05:41:48.441Z,974.98
2017-12-11T05:43:48.443Z,975.02
2017-12-11T05:44:48.381Z,975.06
2017-12-11T05:45:48.371Z,975.00
2017-12-11T05:46:48.443Z,975.05
2017-12-11T05:47:48.378Z,975.04
2017-12-11T05:48:48.446Z,975.04
2017-12-11T05:49:48.376Z,975.05
2017-12-11T05:50:48.354Z,975.05
2017-12-11T05:51:48.403Z,975.05
2017-12-11T05:52:48.446Z,975.10
2017-12-11T05:53:48.390Z,975.07
2017-12-11T05:54:48.385Z,975.07
2017-12-11T05:55:48.382Z,975.09
2017-12-11T05:56:48.386Z,975.08
2017-12-11T05:57:48.449Z,975.09
2017-12-11T05:58:48.459Z,975.04
2017-12-11T05:59:48.387Z,975.01
2017-12-11T06:00:48.455Z,975.00
2017-12-11T06:01:48.458Z,974.99
2017-12-11T06:02:48.383Z,975.01
2017-12-11T06:03:48.456Z,975.00
2017-12-11T06:04:48.522Z,974.99
2017-12-11T06:05:48.383Z,975.02
2017-12-11T06:06:48.456Z,975.07
2017-12-11T06:07:48.393Z,975.11
2017-12-11T06:08:48.461Z,975.12
2017-12-11T06:09:48.389Z,975.16
2017-12-11T06:10:48.461Z,975.18
2017-12-11T06:11:48.339Z,975.17
2017-12-11T06:12:48.395Z,975.15
2017-12-11T06:13:48.461Z,975.15
2017-12-11T06:14:48.400Z,975.12
2017-12-11T06:15:48.463Z,975.11
2017-12-11T06:16:48.464Z,975.15
2017-12-11T06:17:48.470Z,975.10
2017-12-11T06:18:48.398Z,975.04
2017-12-11T06:19:48.438Z,974.97
2017-12-11T06:20:48.466Z,974.94
2017-12-11T06:21:48.415Z,974.83
2017-12-11T06:22:48.465Z,974.81
2017-12-11T06:23:48.396Z,974.80
2017-12-11T06:24:48.467Z,974.72
2017-12-11T06:25:48.401Z,974.66
2017-12-11T06:26:48.473Z,974.56
2017-12-11T06:27:48.403Z,974.49
2017-12-11T06:28:48.469Z,974.41
2017-12-11T06:29:48.408Z,974.32
2017-12-11T06:30:48.404Z,974.32
2017-12-11T06:31:48.479Z,974.33
2017-12-11T06:32:48.406Z,974.30
2017-12-11T06:33:48.366Z,974.27
2017-12-11T06:34:48.329Z,974.27
2017-12-11T06:35:48.335Z,974.27
2017-12-11T06:36:48.384Z,974.19
2017-12-11T06:37:48.343Z,974.18
2017-12-11T06:38:48.335Z,974.19
2017-12-11T06:39:48.412Z,974.15
2017-12-11T06:40:48.368Z,974.17
2017-12-11T06:41:48.425Z,974.21
2017-12-11T06:42:48.326Z,974.19
2017-12-11T06:43:48.470Z,974.20
2017-12-11T06:44:48.364Z,974.17
2017-12-11T06:45:48.383Z,974.17
2017-12-11T06:46:48.391Z,974.09
2017-12-11T06:47:48.411Z,974.06
2017-12-11T06:48:48.382Z,974.17
2017-12-11T06:49:48.477Z,974.18
2017-12-11T06:50:48.416Z,974.23
2017-12-11T06:51:48.481Z,974.24
2017-12-11T06:52:48.389Z,974.27
2017-12-11T06:53:48.415Z,974.27
2017-12-11T06:54:48.499Z,974.25
2017-12-11T06:55:48.552Z,974.22
2017-12-11T06:56:48.487Z,974.29
2017-12-11T06:57:48.419Z,974.28
2017-12-11T06:58:48.504Z,974.27
2017-12-11T06:59:48.424Z,974.40
2017-12-11T07:00:48.494Z,974.46
2017-12-11T07:01:48.422Z,974.46
2017-12-11T07:02:48.461Z,974.51
2017-12-11T07:03:48.481Z,974.43
2017-12-11T07:04:48.487Z,974.48
2017-12-11T07:05:48.491Z,974.52
2017-12-11T07:06:48.449Z,974.47
2017-12-11T07:07:48.460Z,974.37
2017-12-11T07:08:48.400Z,974.36
2017-12-11T07:09:48.479Z,974.37
2017-12-11T07:10:48.364Z,974.40
2017-12-11T07:11:48.483Z,974.44
2017-12-11T07:12:48.498Z,974.58
2017-12-11T07:13:48.447Z,974.54
2017-12-11T07:14:48.353Z,974.60
2017-12-11T07:15:48.398Z,974.56
2017-12-11T07:16:48.411Z,974.56
2017-12-11T07:17:48.444Z,974.46
2017-12-11T07:18:48.404Z,974.46
2017-12-11T07:19:48.449Z,974.37
2017-12-11T07:20:48.357Z,974.34
2017-12-11T07:21:48.400Z,974.37
2017-12-11T07:22:48.450Z,974.44
2017-12-11T07:23:48.440Z,974.48
2017-12-11T07:24:48.507Z,974.55
2017-12-11T07:25:48.440Z,974.55
2017-12-11T07:26:48.523Z,974.55
2017-12-11T07:27:48.440Z,974.51
2017-12-11T07:28:48.512Z,974.52
2017-12-11T07:29:48.439Z,974.61
2017-12-11T07:30:48.519Z,974.64
2017-12-11T07:31:48.457Z,974.67
2017-12-11T07:32:48.526Z,974.72
2017-12-11T07:33:48.437Z,974.73
2017-12-11T07:34:48.387Z,974.70
2017-12-11T07:35:48.513Z,974.70
2017-12-11T07:36:48.461Z,974.73
2017-12-11T07:37:48.429Z,974.76
2017-12-11T07:38:48.405Z,974.76
2017-12-11T07:39:48.483Z,974.68
2017-12-11T07:40:48.522Z,974.65
2017-12-11T07:41:48.413Z,974.61
2017-12-11T07:42:48.533Z,974.56
2017-12-11T07:43:48.528Z,974.54
2017-12-11T07:44:48.434Z,974.52
2017-12-11T07:45:48.542Z,974.56
2017-12-11T07:46:48.470Z,974.60
2017-12-11T07:47:48.443Z,974.66
2017-12-11T07:48:48.430Z,974.64
2017-12-11T07:49:48.472Z,974.66
2017-12-11T07:50:48.522Z,974.67
2017-12-11T07:51:48.440Z,974.73
2017-12-11T07:52:48.491Z,974.71
2017-12-11T07:53:48.489Z,974.71
2017-12-11T07:54:48.537Z,974.77
2017-12-11T07:55:48.476Z,974.83
2017-12-11T07:56:48.459Z,974.81
2017-12-11T07:57:48.491Z,974.85
2017-12-11T07:58:48.476Z,974.83
2017-12-11T07:59:48.591Z,974.82
2017-12-11T08:00:48.469Z,974.82
2017-12-11T08:01:48.471Z,974.79
2017-12-11T08:02:48.547Z,974.87
2017-12-11T08:03:48.460Z,974.88
2017-12-11T08:04:48.528Z,974.91
2017-12-11T08:05:48.477Z,974.89
2017-12-11T08:06:48.563Z,974.93
2017-12-11T08:07:48.477Z,975.02
2017-12-11T08:08:48.551Z,975.07
2017-12-11T08:09:48.563Z,975.16
2017-12-11T08:10:48.469Z,975.15
2017-12-11T08:11:48.551Z,975.21
2017-12-11T08:12:48.473Z,975.22
2017-12-11T08:13:48.558Z,975.17
2017-12-11T08:14:48.486Z,975.18
2017-12-11T08:15:48.583Z,975.15
2017-12-11T08:16:48.551Z,975.18
2017-12-11T08:17:48.550Z,975.10
2017-12-11T08:18:48.554Z,975.08
2017-12-11T08:19:48.488Z,975.09
2017-12-11T08:20:48.551Z,975.07
2017-12-11T08:21:48.518Z,975.06
2017-12-11T08:22:48.560Z,975.09
2017-12-11T08:23:48.516Z,975.02
2017-12-11T08:24:48.487Z,975.02
2017-12-11T08:25:48.542Z,974.99
2017-12-11T08:26:48.493Z,974.99
2017-12-11T08:27:48.558Z,975.04
2017-12-11T08:28:48.492Z,975.01
2017-12-11T08:29:48.555Z,975.02
2017-12-11T08:30:48.560Z,974.99
2017-12-11T08:31:48.487Z,974.94
2017-12-11T08:32:48.490Z,974.92
2017-12-11T08:33:48.493Z,974.86
2017-12-11T08:34:48.559Z,974.83
2017-12-11T08:35:48.499Z,974.84
2017-12-11T08:36:48.580Z,974.85
2017-12-11T08:37:48.574Z,974.85
2017-12-11T08:38:48.491Z,974.84
2017-12-11T08:39:48.559Z,974.86
2017-12-11T08:40:48.603Z,974.80
2017-12-11T08:41:48.521Z,974.81
2017-12-11T08:42:48.562Z,974.80
2017-12-11T08:43:48.498Z,974.77
2017-12-11T08:44:48.568Z,974.78
2017-12-11T08:45:48.494Z,974.68
2017-12-11T08:46:48.570Z,974.63
2017-12-11T08:47:48.573Z,974.65
2017-12-11T08:48:48.490Z,974.69
2017-12-11T08:49:48.499Z,974.71
2017-12-11T08:50:48.564Z,974.77
2017-12-11T08:51:48.500Z,974.81
2017-12-11T08:52:48.564Z,974.82
2017-12-11T08:53:48.577Z,974.88
2017-12-11T08:54:48.497Z,974.85
2017-12-11T08:55:48.556Z,974.83
2017-12-11T08:56:48.505Z,974.77
2017-12-11T09:01:48.496Z,974.90
2017-12-11T09:02:48.508Z,974.93
2017-12-11T09:03:48.586Z,974.88
2017-12-11T09:04:48.494Z,974.87
2017-12-11T09:05:48.562Z,974.92
2017-12-11T09:06:48.498Z,974.92
2017-12-11T09:07:48.577Z,974.92
2017-12-11T09:08:48.494Z,974.98
2017-12-11T09:09:48.500Z,974.99
2017-12-11T09:10:48.570Z,974.92
2017-12-11T09:11:48.501Z,974.86
2017-12-11T09:12:48.793Z,974.79
2017-12-11T09:13:48.566Z,974.74
2017-12-11T09:14:48.566Z,974.69
2017-12-11T09:15:48.506Z,974.69
2017-12-11T09:16:48.570Z,974.71
2017-12-11T09:17:48.518Z,974.73
2017-12-11T09:18:48.593Z,974.68
2017-12-11T09:19:48.501Z,974.65
2017-12-11T09:20:48.504Z,974.66
2017-12-11T09:21:48.573Z,974.76
2017-12-11T09:22:48.504Z,974.78
2017-12-11T09:23:48.518Z,974.78
2017-12-11T09:24:48.571Z,974.70
2017-12-11T09:25:48.542Z,974.56
2017-12-11T09:26:48.542Z,974.49
2017-12-11T09:27:48.542Z,974.47
2017-12-11T09:28:48.538Z,974.52
2017-12-11T09:29:48.506Z,974.49
2017-12-11T09:30:48.454Z,974.54
2017-12-11T09:31:48.576Z,974.52
2017-12-11T09:32:48.575Z,974.58
2017-12-11T09:33:48.516Z,974.62
2017-12-11T09:34:48.583Z,974.65
2017-12-11T09:35:48.511Z,974.69
2017-12-11T09:36:48.580Z,974.74
2017-12-11T09:37:48.514Z,974.72
2017-12-11T09:38:48.585Z,974.71
2017-12-11T09:39:48.512Z,974.67
2017-12-11T09:40:48.585Z,974.56
2017-12-11T09:41:48.542Z,974.48
2017-12-11T09:42:48.508Z,974.52
2017-12-11T09:43:48.628Z,974.54
2017-12-11T09:44:48.589Z,974.54
2017-12-11T09:45:48.542Z,974.47
2017-12-11T09:46:48.530Z,974.52
2017-12-11T09:47:48.525Z,974.55
2017-12-11T09:48:48.589Z,974.62
2017-12-11T09:49:48.521Z,974.65
2017-12-11T09:50:48.518Z,974.66
2017-12-11T09:51:48.594Z,974.61
2017-12-11T09:52:48.526Z,974.57
2017-12-11T09:53:48.591Z,974.58
2017-12-11T09:54:48.592Z,974.64
2017-12-11T09:55:48.524Z,974.61
2017-12-11T09:56:48.527Z,974.59
2017-12-11T09:57:48.594Z,974.58
2017-12-11T09:58:48.531Z,974.58
2017-12-11T09:59:48.526Z,974.57
2017-12-11T10:00:48.596Z,974.58
2017-12-11T10:01:48.573Z,974.57
2017-12-11T10:02:48.530Z,974.46
2017-12-11T10:03:48.553Z,974.42
2017-12-11T10:04:48.588Z,974.34
2017-12-11T10:05:48.485Z,974.29
2017-12-11T10:06:48.586Z,974.24
2017-12-11T10:07:48.521Z,974.20
2017-12-11T10:08:48.504Z,974.19
2017-12-11T10:09:48.576Z,974.12
2017-12-11T10:10:48.559Z,974.15
2017-12-11T10:11:48.472Z,974.14
2017-12-11T10:12:48.590Z,974.10
2017-12-11T10:13:48.563Z,974.10
2017-12-11T10:14:48.465Z,974.15
2017-12-11T10:15:48.507Z,974.10
2017-12-11T10:16:48.479Z,974.09
2017-12-11T10:17:48.470Z,974.06
2017-12-11T10:18:48.563Z,973.98
2017-12-11T10:19:48.496Z,973.90
2017-12-11T10:20:48.498Z,973.93
2017-12-11T10:21:48.563Z,974.04
2017-12-11T10:22:48.469Z,974.03
2017-12-11T10:23:48.545Z,973.90
2017-12-11T10:24:48.610Z,973.87
2017-12-11T10:25:48.611Z,973.89
2017-12-11T10:26:48.546Z,973.84
2017-12-11T10:27:48.617Z,973.76
2017-12-11T10:28:48.612Z,973.70
2017-12-11T10:29:48.614Z,973.65
2017-12-11T10:30:48.546Z,973.63
2017-12-11T10:31:48.616Z,973.65
2017-12-11T10:32:48.552Z,973.63
2017-12-11T10:33:48.568Z,973.61
2017-12-11T10:34:48.570Z,973.59
2017-12-11T10:35:48.599Z,973.46
2017-12-11T10:36:48.556Z,973.43
2017-12-11T10:37:48.514Z,973.36
2017-12-11T10:38:48.481Z,973.33
2017-12-11T10:41:48.582Z,973.39
2017-12-11T10:42:48.506Z,973.38
2017-12-11T10:43:48.595Z,973.31
2017-12-11T10:44:48.534Z,973.18
2017-12-11T10:45:48.545Z,973.10
2017-12-11T10:46:48.605Z,973.08
2017-12-11T10:47:48.552Z,973.09
2017-12-11T10:48:48.492Z,973.00
2017-12-11T10:49:48.575Z,973.01
2017-12-11T10:50:48.481Z,972.97
2017-12-11T10:51:48.514Z,972.95
2017-12-11T10:52:48.560Z,972.93
2017-12-11T10:53:48.607Z,972.93
2017-12-11T10:54:48.576Z,972.98
2017-12-11T10:55:48.617Z,972.94
2017-12-11T10:56:48.576Z,972.95
2017-12-11T10:57:48.535Z,972.95
2017-12-11T10:58:48.630Z,972.90
2017-12-11T10:59:48.607Z,972.90
2017-12-11T11:00:48.580Z,972.88
2017-12-11T11:01:48.584Z,972.89
2017-12-11T11:02:48.535Z,972.85
2017-12-11T11:03:48.637Z,972.81
2017-12-11T11:04:48.566Z,972.81
2017-12-11T11:05:48.641Z,972.76
2017-12-11T11:06:48.637Z,972.76
2017-12-11T11:07:48.566Z,972.72
2017-12-11T11:08:48.575Z,972.73
2017-12-11T11:09:48.572Z,972.71
2017-12-11T11:10:48.575Z,972.69
2017-12-11T11:11:48.642Z,972.67
2017-12-11T11:12:48.638Z,972.66
2017-12-11T11:13:48.621Z,972.62
2017-12-11T11:14:48.619Z,972.60
2017-12-11T11:15:48.566Z,972.53
2017-12-11T11:16:48.622Z,972.49
2017-12-11T11:17:48.628Z,972.43
2017-12-11T11:18:48.565Z,972.40
2017-12-11T11:19:48.605Z,972.36
2017-12-11T11:20:48.596Z,972.34
2017-12-11T11:21:48.623Z,972.35
2017-12-11T11:22:48.568Z,972.40
2017-12-11T11:23:48.530Z,972.45
2017-12-11T11:24:48.594Z,972.36
2017-12-11T11:25:48.618Z,972.29
2017-12-11T11:26:48.634Z,972.21
2017-12-11T11:27:48.530Z,972.14
2017-12-11T11:28:48.639Z,972.10
2017-12-11T11:29:48.533Z,972.02
2017-12-11T11:30:48.601Z,971.99
2017-12-11T11:31:48.649Z,971.98
2017-12-11T11:32:48.517Z,971.96
2017-12-11T11:33:48.635Z,971.96
2017-12-11T11:34:48.617Z,971.91
2017-12-11T11:35:48.613Z,971.80
2017-12-11T11:36:48.513Z,971.72
2017-12-11T11:37:48.586Z,971.64
2017-12-11T11:38:48.515Z,971.64
2017-12-11T11:39:48.565Z,971.58
2017-12-11T11:40:48.563Z,971.50
2017-12-11T11:41:48.612Z,971.46
2017-12-11T11:42:48.556Z,971.44
2017-12-11T11:43:48.593Z,971.44
2017-12-11T11:44:48.658Z,971.39
2017-12-11T11:45:48.665Z,971.27
2017-12-11T11:46:48.596Z,971.18
2017-12-11T11:47:48.663Z,971.11
2017-12-11T11:48:48.597Z,971.10
2017-12-11T11:49:48.661Z,971.05
2017-12-11T11:50:48.593Z,970.99
2017-12-11T11:51:48.661Z,970.93
2017-12-11T11:52:48.597Z,970.86
2017-12-11T11:53:48.666Z,970.77
2017-12-11T11:54:48.598Z,970.73
2017-12-11T11:55:48.597Z,970.66
2017-12-11T11:56:48.667Z,970.62
2017-12-11T11:57:48.596Z,970.59
2017-12-11T11:58:48.666Z,970.55
2017-12-11T11:59:48.598Z,970.51
2017-12-11T12:00:48.668Z,970.56
2017-12-11T12:01:48.600Z,970.49
2017-12-11T12:02:48.671Z,970.47
2017-12-11T12:03:48.600Z,970.56
2017-12-11T12:04:48.670Z,970.57
2017-12-11T12:05:48.616Z,970.46
2017-12-11T12:06:48.671Z,970.39
2017-12-11T12:07:48.603Z,970.34
2017-12-11T12:08:48.672Z,970.35
2017-12-11T12:09:48.612Z,970.35
2017-12-11T12:10:48.675Z,970.30
2017-12-11T12:11:48.606Z,970.34
2017-12-11T12:12:48.679Z,970.35
2017-12-11T12:13:48.655Z,970.35
2017-12-11T12:14:48.529Z,970.32
2017-12-11T12:15:48.631Z,970.33
2017-12-11T12:16:48.543Z,970.31
2017-12-11T12:17:48.660Z,970.32
2017-12-11T12:18:48.658Z,970.36
2017-12-11T12:19:48.533Z,970.35
2017-12-11T12:20:48.642Z,970.35
2017-12-11T12:21:48.658Z,970.39
2017-12-11T12:22:48.644Z,970.31
2017-12-11T12:23:48.563Z,970.30
2017-12-11T12:24:48.616Z,970.31
2017-12-11T12:25:48.583Z,970.29
2017-12-11T12:26:48.667Z,970.30
2017-12-11T12:27:48.584Z,970.32
2017-12-11T12:28:48.682Z,970.34
2017-12-11T12:29:48.555Z,970.35
2017-12-11T12:30:48.656Z,970.29
2017-12-11T12:31:48.551Z,970.24
2017-12-11T12:32:48.628Z,970.31
2017-12-11T12:33:48.643Z,970.25
2017-12-11T12:34:48.647Z,970.21
2017-12-11T12:35:48.554Z,970.22